sensor_id;sensor_type;location;lat;lon;timestamp;P1;durP1;ratioP1;P2;durP2;ratioP2
7519;SDS011;3801;48.876;10.184;2024-03-02T00:02:25;22.77;;;13.90;;
7519;SDS011;3801;48.876;10.184;2024-03-02T00:07:28;25.23;;;15.67;;
7519;SDS011;3801;48.876;10.184;2024-03-02T00:12:35;28.27;;;15.83;;
7519;SDS011;3801;48.876;10.184;2024-03-02T00:17:39;26.30;;;14.33;;
7519;SDS011;3801;48.876;10.184;2024-03-02T00:22:42;29.60;;;15.73;;
7519;SDS011;3801;48.876;10.184;2024-03-02T00:27:48;27.70;;;16.03;;
7519;SDS011;3801;48.876;10.184;2024-03-02T00:32:52;28.53;;;16.13;;
7519;SDS011;3801;48.876;10.184;2024-03-02T00:37:56;22.90;;;13.27;;
7519;SDS011;3801;48.876;10.184;2024-03-02T00:43:01;27.23;;;15.20;;
7519;SDS011;3801;48.876;10.184;2024-03-02T00:48:05;26.70;;;15.53;;
7519;SDS011;3801;48.876;10.184;2024-03-02T00:53:09;24.93;;;15.03;;
7519;SDS011;3801;48.876;10.184;2024-03-02T00:58:14;25.47;;;14.47;;
7519;SDS011;3801;48.876;10.184;2024-03-02T01:03:18;26.90;;;15.10;;
7519;SDS011;3801;48.876;10.184;2024-03-02T01:08:21;24.63;;;15.60;;
7519;SDS011;3801;48.876;10.184;2024-03-02T01:13:27;28.57;;;15.70;;
7519;SDS011;3801;48.876;10.184;2024-03-02T01:18:30;23.17;;;14.10;;
7519;SDS011;3801;48.876;10.184;2024-03-02T01:23:34;32.13;;;17.07;;
7519;SDS011;3801;48.876;10.184;2024-03-02T01:28:39;25.30;;;16.23;;
7519;SDS011;3801;48.876;10.184;2024-03-02T01:33:43;28.97;;;17.80;;
7519;SDS011;3801;48.876;10.184;2024-03-02T01:38:47;27.93;;;15.40;;
7519;SDS011;3801;48.876;10.184;2024-03-02T01:43:53;27.20;;;16.50;;
7519;SDS011;3801;48.876;10.184;2024-03-02T01:48:57;24.50;;;14.70;;
7519;SDS011;3801;48.876;10.184;2024-03-02T01:54:00;25.13;;;15.10;;
7519;SDS011;3801;48.876;10.184;2024-03-02T01:59:05;26.30;;;16.33;;
7519;SDS011;3801;48.876;10.184;2024-03-02T02:04:09;26.30;;;14.80;;
7519;SDS011;3801;48.876;10.184;2024-03-02T02:09:13;26.73;;;16.00;;
7519;SDS011;3801;48.876;10.184;2024-03-02T02:14:18;27.57;;;15.70;;
7519;SDS011;3801;48.876;10.184;2024-03-02T02:19:21;28.73;;;15.83;;
7519;SDS011;3801;48.876;10.184;2024-03-02T02:24:26;25.90;;;15.97;;
7519;SDS011;3801;48.876;10.184;2024-03-02T02:29:29;30.20;;;15.67;;
7519;SDS011;3801;48.876;10.184;2024-03-02T02:34:33;28.17;;;16.17;;
7519;SDS011;3801;48.876;10.184;2024-03-02T02:39:38;27.30;;;16.23;;
7519;SDS011;3801;48.876;10.184;2024-03-02T02:44:42;24.23;;;12.77;;
7519;SDS011;3801;48.876;10.184;2024-03-02T02:49:46;26.70;;;15.33;;
7519;SDS011;3801;48.876;10.184;2024-03-02T02:54:50;19.57;;;10.73;;
7519;SDS011;3801;48.876;10.184;2024-03-02T02:59:54;29.50;;;16.90;;
7519;SDS011;3801;48.876;10.184;2024-03-02T03:04:57;24.53;;;11.87;;
7519;SDS011;3801;48.876;10.184;2024-03-02T03:10:02;24.27;;;13.53;;
7519;SDS011;3801;48.876;10.184;2024-03-02T03:15:07;27.70;;;16.00;;
7519;SDS011;3801;48.876;10.184;2024-03-02T03:20:11;25.93;;;15.87;;
7519;SDS011;3801;48.876;10.184;2024-03-02T03:25:15;29.37;;;16.13;;
7519;SDS011;3801;48.876;10.184;2024-03-02T03:30:19;27.17;;;15.43;;
7519;SDS011;3801;48.876;10.184;2024-03-02T03:35:23;31.27;;;14.53;;
7519;SDS011;3801;48.876;10.184;2024-03-02T03:40:28;25.53;;;14.70;;
7519;SDS011;3801;48.876;10.184;2024-03-02T03:45:32;26.97;;;14.60;;
7519;SDS011;3801;48.876;10.184;2024-03-02T03:50:36;30.90;;;16.07;;
7519;SDS011;3801;48.876;10.184;2024-03-02T03:55:42;30.03;;;16.80;;
7519;SDS011;3801;48.876;10.184;2024-03-02T04:00:45;29.43;;;16.20;;
7519;SDS011;3801;48.876;10.184;2024-03-02T04:05:49;29.27;;;16.10;;
7519;SDS011;3801;48.876;10.184;2024-03-02T04:10:54;31.37;;;16.73;;
7519;SDS011;3801;48.876;10.184;2024-03-02T04:15:58;29.33;;;15.90;;
7519;SDS011;3801;48.876;10.184;2024-03-02T04:21:01;28.90;;;15.20;;
7519;SDS011;3801;48.876;10.184;2024-03-02T04:26:06;30.60;;;16.67;;
7519;SDS011;3801;48.876;10.184;2024-03-02T04:31:10;30.23;;;15.53;;
7519;SDS011;3801;48.876;10.184;2024-03-02T04:36:14;26.47;;;16.30;;
7519;SDS011;3801;48.876;10.184;2024-03-02T04:41:20;32.07;;;16.80;;
7519;SDS011;3801;48.876;10.184;2024-03-02T04:46:23;27.40;;;13.83;;
7519;SDS011;3801;48.876;10.184;2024-03-02T04:51:27;21.67;;;12.27;;
7519;SDS011;3801;48.876;10.184;2024-03-02T04:56:32;28.27;;;15.97;;
7519;SDS011;3801;48.876;10.184;2024-03-02T05:01:51;26.80;;;14.83;;
7519;SDS011;3801;48.876;10.184;2024-03-02T05:06:55;30.60;;;15.57;;
7519;SDS011;3801;48.876;10.184;2024-03-02T05:12:02;25.43;;;13.50;;
7519;SDS011;3801;48.876;10.184;2024-03-02T05:17:25;30.07;;;13.83;;
7519;SDS011;3801;48.876;10.184;2024-03-02T05:22:29;25.47;;;13.50;;
7519;SDS011;3801;48.876;10.184;2024-03-02T05:27:34;29.80;;;14.63;;
7519;SDS011;3801;48.876;10.184;2024-03-02T05:32:38;28.23;;;13.70;;
7519;SDS011;3801;48.876;10.184;2024-03-02T05:37:41;26.50;;;13.77;;
7519;SDS011;3801;48.876;10.184;2024-03-02T05:42:46;26.70;;;14.30;;
7519;SDS011;3801;48.876;10.184;2024-03-02T05:47:50;24.73;;;12.47;;
7519;SDS011;3801;48.876;10.184;2024-03-02T05:52:54;22.23;;;12.07;;
7519;SDS011;3801;48.876;10.184;2024-03-02T05:58:01;16.80;;;9.53;;
7519;SDS011;3801;48.876;10.184;2024-03-02T06:03:19;18.77;;;12.20;;
7519;SDS011;3801;48.876;10.184;2024-03-02T06:08:23;23.00;;;11.93;;
7519;SDS011;3801;48.876;10.184;2024-03-02T06:13:28;18.93;;;10.67;;
7519;SDS011;3801;48.876;10.184;2024-03-02T06:18:32;19.47;;;10.97;;
7519;SDS011;3801;48.876;10.184;2024-03-02T06:23:36;21.33;;;10.50;;
7519;SDS011;3801;48.876;10.184;2024-03-02T06:28:41;16.70;;;9.20;;
7519;SDS011;3801;48.876;10.184;2024-03-02T06:33:45;18.60;;;9.63;;
7519;SDS011;3801;48.876;10.184;2024-03-02T06:38:49;19.93;;;10.10;;
7519;SDS011;3801;48.876;10.184;2024-03-02T06:43:54;15.43;;;8.07;;
7519;SDS011;3801;48.876;10.184;2024-03-02T06:49:02;16.13;;;10.00;;
7519;SDS011;3801;48.876;10.184;2024-03-02T06:54:06;21.93;;;10.60;;
7519;SDS011;3801;48.876;10.184;2024-03-02T06:59:11;23.93;;;12.67;;
7519;SDS011;3801;48.876;10.184;2024-03-02T07:04:14;20.23;;;10.03;;
7519;SDS011;3801;48.876;10.184;2024-03-02T07:09:18;19.87;;;10.60;;
7519;SDS011;3801;48.876;10.184;2024-03-02T07:14:25;12.60;;;7.33;;
7519;SDS011;3801;48.876;10.184;2024-03-02T07:19:49;16.97;;;9.73;;
7519;SDS011;3801;48.876;10.184;2024-03-02T07:24:53;23.43;;;12.43;;
7519;SDS011;3801;48.876;10.184;2024-03-02T07:30:00;14.57;;;8.60;;
7519;SDS011;3801;48.876;10.184;2024-03-02T07:35:03;19.13;;;11.00;;
7519;SDS011;3801;48.876;10.184;2024-03-02T07:40:07;20.23;;;11.33;;
7519;SDS011;3801;48.876;10.184;2024-03-02T07:45:14;18.00;;;10.67;;
7519;SDS011;3801;48.876;10.184;2024-03-02T07:50:18;22.07;;;11.80;;
7519;SDS011;3801;48.876;10.184;2024-03-02T07:55:22;19.10;;;11.33;;
7519;SDS011;3801;48.876;10.184;2024-03-02T08:00:28;22.17;;;11.80;;
7519;SDS011;3801;48.876;10.184;2024-03-02T08:05:32;18.63;;;11.33;;
7519;SDS011;3801;48.876;10.184;2024-03-02T08:10:35;17.27;;;8.77;;
7519;SDS011;3801;48.876;10.184;2024-03-02T08:15:40;16.27;;;10.83;;
7519;SDS011;3801;48.876;10.184;2024-03-02T08:20:43;21.27;;;11.40;;
7519;SDS011;3801;48.876;10.184;2024-03-02T08:25:49;19.07;;;10.00;;
7519;SDS011;3801;48.876;10.184;2024-03-02T08:30:55;16.93;;;10.43;;
7519;SDS011;3801;48.876;10.184;2024-03-02T08:35:59;18.47;;;10.03;;
7519;SDS011;3801;48.876;10.184;2024-03-02T08:41:02;15.53;;;10.20;;
7519;SDS011;3801;48.876;10.184;2024-03-02T08:46:08;20.37;;;11.10;;
7519;SDS011;3801;48.876;10.184;2024-03-02T08:51:12;14.20;;;9.23;;
7519;SDS011;3801;48.876;10.184;2024-03-02T08:56:15;18.20;;;10.97;;
7519;SDS011;3801;48.876;10.184;2024-03-02T09:01:20;14.37;;;8.90;;
7519;SDS011;3801;48.876;10.184;2024-03-02T09:06:24;14.33;;;8.17;;
7519;SDS011;3801;48.876;10.184;2024-03-02T09:11:28;12.47;;;8.27;;
7519;SDS011;3801;48.876;10.184;2024-03-02T09:16:34;10.67;;;6.83;;
7519;SDS011;3801;48.876;10.184;2024-03-02T09:21:38;8.87;;;6.60;;
7519;SDS011;3801;48.876;10.184;2024-03-02T09:26:42;10.07;;;6.00;;
7519;SDS011;3801;48.876;10.184;2024-03-02T09:31:48;21.17;;;11.00;;
7519;SDS011;3801;48.876;10.184;2024-03-02T09:36:53;22.60;;;11.50;;
7519;SDS011;3801;48.876;10.184;2024-03-02T09:41:57;7.13;;;5.53;;
7519;SDS011;3801;48.876;10.184;2024-03-02T09:47:03;8.13;;;6.33;;
7519;SDS011;3801;48.876;10.184;2024-03-02T09:52:08;6.17;;;4.30;;
7519;SDS011;3801;48.876;10.184;2024-03-02T09:57:11;5.27;;;3.87;;
7519;SDS011;3801;48.876;10.184;2024-03-02T10:02:16;7.67;;;3.40;;
7519;SDS011;3801;48.876;10.184;2024-03-02T10:07:20;5.00;;;3.63;;
7519;SDS011;3801;48.876;10.184;2024-03-02T10:12:24;5.27;;;3.43;;
7519;SDS011;3801;48.876;10.184;2024-03-02T10:17:30;5.20;;;3.13;;
7519;SDS011;3801;48.876;10.184;2024-03-02T10:22:35;3.73;;;3.20;;
7519;SDS011;3801;48.876;10.184;2024-03-02T10:27:40;3.13;;;2.70;;
7519;SDS011;3801;48.876;10.184;2024-03-02T10:32:44;3.33;;;3.03;;
7519;SDS011;3801;48.876;10.184;2024-03-02T10:37:49;4.50;;;3.57;;
7519;SDS011;3801;48.876;10.184;2024-03-02T10:42:55;5.77;;;4.07;;
7519;SDS011;3801;48.876;10.184;2024-03-02T10:48:00;6.20;;;4.20;;
7519;SDS011;3801;48.876;10.184;2024-03-02T10:53:05;5.77;;;4.60;;
7519;SDS011;3801;48.876;10.184;2024-03-02T10:58:09;6.77;;;3.90;;
7519;SDS011;3801;48.876;10.184;2024-03-02T11:03:17;4.63;;;3.37;;
7519;SDS011;3801;48.876;10.184;2024-03-02T11:08:21;3.63;;;3.10;;
7519;SDS011;3801;48.876;10.184;2024-03-02T11:13:27;3.90;;;3.10;;
7519;SDS011;3801;48.876;10.184;2024-03-02T11:18:34;2.53;;;2.33;;
7519;SDS011;3801;48.876;10.184;2024-03-02T11:23:39;1.93;;;1.70;;
7519;SDS011;3801;48.876;10.184;2024-03-02T11:28:42;1.67;;;1.50;;
7519;SDS011;3801;48.876;10.184;2024-03-02T11:33:47;2.87;;;2.00;;
7519;SDS011;3801;48.876;10.184;2024-03-02T11:38:50;2.40;;;1.70;;
7519;SDS011;3801;48.876;10.184;2024-03-02T11:43:55;2.60;;;1.80;;
7519;SDS011;3801;48.876;10.184;2024-03-02T11:49:01;3.43;;;2.23;;
7519;SDS011;3801;48.876;10.184;2024-03-02T11:54:05;2.83;;;2.20;;
7519;SDS011;3801;48.876;10.184;2024-03-02T11:59:09;3.40;;;2.90;;
7519;SDS011;3801;48.876;10.184;2024-03-02T12:04:14;3.27;;;3.00;;
7519;SDS011;3801;48.876;10.184;2024-03-02T12:09:17;3.03;;;2.73;;
7519;SDS011;3801;48.876;10.184;2024-03-02T12:14:22;4.23;;;2.17;;
7519;SDS011;3801;48.876;10.184;2024-03-02T12:19:27;4.23;;;2.37;;
7519;SDS011;3801;48.876;10.184;2024-03-02T12:24:32;2.70;;;2.50;;
7519;SDS011;3801;48.876;10.184;2024-03-02T12:29:36;3.23;;;2.30;;
7519;SDS011;3801;48.876;10.184;2024-03-02T12:34:41;2.80;;;2.60;;
7519;SDS011;3801;48.876;10.184;2024-03-02T12:39:45;3.17;;;2.33;;
7519;SDS011;3801;48.876;10.184;2024-03-02T12:44:51;5.03;;;3.90;;
7519;SDS011;3801;48.876;10.184;2024-03-02T12:49:57;2.70;;;2.50;;
7519;SDS011;3801;48.876;10.184;2024-03-02T12:55:01;5.90;;;3.77;;
7519;SDS011;3801;48.876;10.184;2024-03-02T13:00:06;5.20;;;3.83;;
7519;SDS011;3801;48.876;10.184;2024-03-02T13:05:12;3.63;;;3.17;;
7519;SDS011;3801;48.876;10.184;2024-03-02T13:10:16;3.63;;;3.20;;
7519;SDS011;3801;48.876;10.184;2024-03-02T13:15:20;4.03;;;3.47;;
7519;SDS011;3801;48.876;10.184;2024-03-02T13:20:25;3.77;;;3.47;;
7519;SDS011;3801;48.876;10.184;2024-03-02T13:25:33;5.23;;;3.43;;
7519;SDS011;3801;48.876;10.184;2024-03-02T13:30:37;4.70;;;3.90;;
7519;SDS011;3801;48.876;10.184;2024-03-02T13:35:45;4.70;;;3.97;;
7519;SDS011;3801;48.876;10.184;2024-03-02T13:40:50;4.63;;;3.93;;
7519;SDS011;3801;48.876;10.184;2024-03-02T13:45:54;5.80;;;4.90;;
7519;SDS011;3801;48.876;10.184;2024-03-02T13:51:02;4.13;;;3.40;;
7519;SDS011;3801;48.876;10.184;2024-03-02T13:56:06;3.90;;;3.50;;
7519;SDS011;3801;48.876;10.184;2024-03-02T14:01:09;5.33;;;4.20;;
7519;SDS011;3801;48.876;10.184;2024-03-02T14:06:15;4.83;;;4.30;;
7519;SDS011;3801;48.876;10.184;2024-03-02T14:11:18;9.60;;;5.37;;
7519;SDS011;3801;48.876;10.184;2024-03-02T14:16:22;6.57;;;4.10;;
7519;SDS011;3801;48.876;10.184;2024-03-02T14:21:27;6.00;;;4.73;;
7519;SDS011;3801;48.876;10.184;2024-03-02T14:26:30;4.70;;;3.70;;
7519;SDS011;3801;48.876;10.184;2024-03-02T14:31:35;9.77;;;5.40;;
7519;SDS011;3801;48.876;10.184;2024-03-02T14:36:40;8.63;;;6.27;;
7519;SDS011;3801;48.876;10.184;2024-03-02T14:41:46;10.17;;;7.43;;
7519;SDS011;3801;48.876;10.184;2024-03-02T14:46:50;12.37;;;8.37;;
7519;SDS011;3801;48.876;10.184;2024-03-02T14:51:55;11.73;;;7.70;;
7519;SDS011;3801;48.876;10.184;2024-03-02T14:57:00;10.53;;;8.47;;
7519;SDS011;3801;48.876;10.184;2024-03-02T15:02:04;9.77;;;7.90;;
7519;SDS011;3801;48.876;10.184;2024-03-02T15:07:11;12.07;;;8.03;;
7519;SDS011;3801;48.876;10.184;2024-03-02T15:12:14;11.30;;;7.87;;
7519;SDS011;3801;48.876;10.184;2024-03-02T15:17:19;13.10;;;8.63;;
7519;SDS011;3801;48.876;10.184;2024-03-02T15:22:25;13.77;;;9.13;;
7519;SDS011;3801;48.876;10.184;2024-03-02T15:27:28;12.90;;;8.97;;
7519;SDS011;3801;48.876;10.184;2024-03-02T15:32:31;15.67;;;10.40;;
7519;SDS011;3801;48.876;10.184;2024-03-02T15:37:37;19.20;;;10.90;;
7519;SDS011;3801;48.876;10.184;2024-03-02T15:42:40;15.90;;;10.87;;
7519;SDS011;3801;48.876;10.184;2024-03-02T15:47:43;16.77;;;11.57;;
7519;SDS011;3801;48.876;10.184;2024-03-02T15:52:49;19.13;;;13.07;;
7519;SDS011;3801;48.876;10.184;2024-03-02T15:57:53;16.70;;;10.20;;
7519;SDS011;3801;48.876;10.184;2024-03-02T16:02:57;25.40;;;16.23;;
7519;SDS011;3801;48.876;10.184;2024-03-02T16:08:02;24.50;;;16.27;;
7519;SDS011;3801;48.876;10.184;2024-03-02T16:13:05;31.33;;;20.57;;
7519;SDS011;3801;48.876;10.184;2024-03-02T16:18:09;28.77;;;19.30;;
7519;SDS011;3801;48.876;10.184;2024-03-02T16:23:14;26.67;;;16.17;;
7519;SDS011;3801;48.876;10.184;2024-03-02T16:28:18;28.87;;;17.77;;
7519;SDS011;3801;48.876;10.184;2024-03-02T16:33:23;27.00;;;18.53;;
7519;SDS011;3801;48.876;10.184;2024-03-02T16:38:29;24.77;;;16.50;;
7519;SDS011;3801;48.876;10.184;2024-03-02T16:43:33;27.70;;;17.63;;
7519;SDS011;3801;48.876;10.184;2024-03-02T16:48:37;25.93;;;16.90;;
7519;SDS011;3801;48.876;10.184;2024-03-02T16:53:42;31.13;;;18.87;;
7519;SDS011;3801;48.876;10.184;2024-03-02T16:58:46;27.37;;;18.27;;
7519;SDS011;3801;48.876;10.184;2024-03-02T17:03:49;29.57;;;19.60;;
7519;SDS011;3801;48.876;10.184;2024-03-02T17:08:55;25.90;;;16.53;;
7519;SDS011;3801;48.876;10.184;2024-03-02T17:13:58;27.87;;;14.37;;
7519;SDS011;3801;48.876;10.184;2024-03-02T17:19:02;29.33;;;16.77;;
7519;SDS011;3801;48.876;10.184;2024-03-02T17:24:07;23.50;;;15.63;;
7519;SDS011;3801;48.876;10.184;2024-03-02T17:29:10;28.37;;;16.83;;
7519;SDS011;3801;48.876;10.184;2024-03-02T17:34:14;32.53;;;19.50;;
7519;SDS011;3801;48.876;10.184;2024-03-02T17:39:19;41.07;;;22.27;;
7519;SDS011;3801;48.876;10.184;2024-03-02T17:44:22;51.73;;;28.63;;
7519;SDS011;3801;48.876;10.184;2024-03-02T17:49:26;35.23;;;21.90;;
7519;SDS011;3801;48.876;10.184;2024-03-02T17:54:31;27.00;;;16.43;;
7519;SDS011;3801;48.876;10.184;2024-03-02T17:59:37;31.27;;;19.57;;
7519;SDS011;3801;48.876;10.184;2024-03-02T18:04:41;34.20;;;19.43;;
7519;SDS011;3801;48.876;10.184;2024-03-02T18:09:48;31.77;;;20.43;;
7519;SDS011;3801;48.876;10.184;2024-03-02T18:14:51;34.73;;;19.07;;
7519;SDS011;3801;48.876;10.184;2024-03-02T18:19:57;31.57;;;17.43;;
7519;SDS011;3801;48.876;10.184;2024-03-02T18:25:03;28.87;;;16.97;;
7519;SDS011;3801;48.876;10.184;2024-03-02T18:30:07;28.77;;;17.30;;
7519;SDS011;3801;48.876;10.184;2024-03-02T18:35:13;28.70;;;17.50;;
7519;SDS011;3801;48.876;10.184;2024-03-02T18:40:20;30.17;;;16.20;;
7519;SDS011;3801;48.876;10.184;2024-03-02T18:45:25;31.33;;;16.80;;
7519;SDS011;3801;48.876;10.184;2024-03-02T18:50:28;24.07;;;14.60;;
7519;SDS011;3801;48.876;10.184;2024-03-02T18:55:34;27.17;;;14.93;;
7519;SDS011;3801;48.876;10.184;2024-03-02T19:00:38;31.00;;;17.53;;
7519;SDS011;3801;48.876;10.184;2024-03-02T19:05:42;26.23;;;15.93;;
7519;SDS011;3801;48.876;10.184;2024-03-02T19:10:47;25.80;;;14.37;;
7519;SDS011;3801;48.876;10.184;2024-03-02T19:15:50;27.27;;;15.23;;
7519;SDS011;3801;48.876;10.184;2024-03-02T19:20:58;27.03;;;16.27;;
7519;SDS011;3801;48.876;10.184;2024-03-02T19:26:03;31.10;;;17.47;;
7519;SDS011;3801;48.876;10.184;2024-03-02T19:31:07;34.80;;;18.33;;
7519;SDS011;3801;48.876;10.184;2024-03-02T19:36:14;33.53;;;17.70;;
7519;SDS011;3801;48.876;10.184;2024-03-02T19:41:24;45.07;;;23.37;;
7519;SDS011;3801;48.876;10.184;2024-03-02T19:46:28;37.47;;;22.03;;
7519;SDS011;3801;48.876;10.184;2024-03-02T19:51:36;31.67;;;18.37;;
7519;SDS011;3801;48.876;10.184;2024-03-02T19:56:44;33.93;;;18.73;;
7519;SDS011;3801;48.876;10.184;2024-03-02T20:01:47;43.60;;;23.93;;
7519;SDS011;3801;48.876;10.184;2024-03-02T20:06:52;56.33;;;30.17;;
7519;SDS011;3801;48.876;10.184;2024-03-02T20:11:57;39.93;;;22.03;;
7519;SDS011;3801;48.876;10.184;2024-03-02T20:17:02;33.57;;;17.40;;
7519;SDS011;3801;48.876;10.184;2024-03-02T20:22:05;33.50;;;18.33;;
7519;SDS011;3801;48.876;10.184;2024-03-02T20:27:11;32.47;;;18.03;;
7519;SDS011;3801;48.876;10.184;2024-03-02T20:32:15;33.70;;;19.47;;
7519;SDS011;3801;48.876;10.184;2024-03-02T20:37:22;30.00;;;17.00;;
7519;SDS011;3801;48.876;10.184;2024-03-02T20:42:28;33.27;;;17.07;;
7519;SDS011;3801;48.876;10.184;2024-03-02T20:47:35;53.37;;;27.87;;
7519;SDS011;3801;48.876;10.184;2024-03-02T20:52:38;34.87;;;19.60;;
7519;SDS011;3801;48.876;10.184;2024-03-02T20:57:43;37.17;;;19.77;;
7519;SDS011;3801;48.876;10.184;2024-03-02T21:02:47;36.13;;;21.67;;
7519;SDS011;3801;48.876;10.184;2024-03-02T21:07:50;39.93;;;21.00;;
7519;SDS011;3801;48.876;10.184;2024-03-02T21:12:56;32.70;;;16.63;;
7519;SDS011;3801;48.876;10.184;2024-03-02T21:18:04;31.40;;;15.87;;
7519;SDS011;3801;48.876;10.184;2024-03-02T21:23:08;28.93;;;16.73;;
7519;SDS011;3801;48.876;10.184;2024-03-02T21:28:18;34.67;;;17.57;;
7519;SDS011;3801;48.876;10.184;2024-03-02T21:33:22;31.23;;;17.20;;
7519;SDS011;3801;48.876;10.184;2024-03-02T21:38:29;30.43;;;16.53;;
7519;SDS011;3801;48.876;10.184;2024-03-02T21:43:36;36.00;;;17.67;;
7519;SDS011;3801;48.876;10.184;2024-03-02T21:48:41;31.53;;;14.80;;
7519;SDS011;3801;48.876;10.184;2024-03-02T21:53:53;22.00;;;11.03;;
7519;SDS011;3801;48.876;10.184;2024-03-02T21:58:59;27.73;;;16.90;;
7519;SDS011;3801;48.876;10.184;2024-03-02T22:04:05;29.37;;;16.20;;
7519;SDS011;3801;48.876;10.184;2024-03-02T22:09:10;36.23;;;21.17;;
7519;SDS011;3801;48.876;10.184;2024-03-02T22:14:18;32.37;;;17.00;;
7519;SDS011;3801;48.876;10.184;2024-03-02T22:19:26;28.43;;;17.73;;
7519;SDS011;3801;48.876;10.184;2024-03-02T22:24:30;33.33;;;18.10;;
7519;SDS011;3801;48.876;10.184;2024-03-02T22:29:36;30.73;;;16.73;;
7519;SDS011;3801;48.876;10.184;2024-03-02T22:34:42;33.63;;;17.57;;
7519;SDS011;3801;48.876;10.184;2024-03-02T22:39:46;33.03;;;17.93;;
7519;SDS011;3801;48.876;10.184;2024-03-02T22:44:51;37.27;;;20.40;;
7519;SDS011;3801;48.876;10.184;2024-03-02T22:49:55;34.03;;;18.87;;
7519;SDS011;3801;48.876;10.184;2024-03-02T22:55:00;37.50;;;19.57;;
7519;SDS011;3801;48.876;10.184;2024-03-02T23:00:07;35.93;;;19.30;;
7519;SDS011;3801;48.876;10.184;2024-03-02T23:05:23;36.67;;;20.13;;
7519;SDS011;3801;48.876;10.184;2024-03-02T23:10:27;37.37;;;20.13;;
7519;SDS011;3801;48.876;10.184;2024-03-02T23:15:32;36.37;;;19.70;;
7519;SDS011;3801;48.876;10.184;2024-03-02T23:20:36;34.43;;;18.37;;
7519;SDS011;3801;48.876;10.184;2024-03-02T23:25:40;36.77;;;18.40;;
7519;SDS011;3801;48.876;10.184;2024-03-02T23:30:45;35.90;;;19.20;;
7519;SDS011;3801;48.876;10.184;2024-03-02T23:35:48;36.83;;;17.77;;
7519;SDS011;3801;48.876;10.184;2024-03-02T23:40:52;40.03;;;20.03;;
7519;SDS011;3801;48.876;10.184;2024-03-02T23:46:11;35.10;;;18.43;;
7519;SDS011;3801;48.876;10.184;2024-03-02T23:51:16;39.33;;;20.23;;
7519;SDS011;3801;48.876;10.184;2024-03-02T23:56:20;35.47;;;18.63;;
